Cannon, Kentucky
Current Conditions -  °F | °C
As of 4:53 PM on Friday 28 Nov 2014 (Local Time) from KLOZ Reporting Station
Clear Clear  
Wind Chill: 34°   Ceiling: Unl
Heat Index: 38°   Visibility: 10mi
Dew Point: 17°   Wind: 5mph
Humidity: 43%   Direction: 180°S
Pressure: 30.24"   Gusts: NA
Location:  36.92°N, 83.85°W
Report Text: KLOZ 282153Z AUTO 18004KT 10SM CLR 03/M08 A3024 RMK AO2 SLP248 T00331083
Loading
Personal Weather Stations






























Interactive Weather Map New forecast layout! Learn more

10-Day Weather Forecast

Advertisements
Track Severe Weather on mobile